Oilton, Oklahoma
Current Conditions -  °F | °C
As of 3:15 PM on Sunday 23 Nov 2014 (Local Time) from KCUH Reporting Station
Scattered Clouds Scattered Clouds  
Wind Chill: 61°   Ceiling: Unl
Heat Index: 61°   Visibility: 10mi
Dew Point: 50°   Wind: 8mph
Humidity: 68%   Direction: 290°WNW
Pressure: 29.35"   Gusts: 16mph
Location:  36.08°N, 96.58°W
Report Text: KCUH 232115Z AUTO 29007G14KT 10SM SCT046 SCT060 16/10 A2935 RMK AO2
Loading
Personal Weather Stations






























Interactive Weather Map New forecast layout! Learn more

10-Day Weather Forecast

Advertisements
Track Severe Weather on mobile